createdAt,value
2022-12-03T00:00:39.467Z,12.10
2022-12-03T00:03:37.108Z,11.20
2022-12-03T00:06:34.985Z,9.90
2022-12-03T00:09:32.498Z,13.00
2022-12-03T00:12:29.977Z,12.00
2022-12-03T00:15:27.434Z,12.70
2022-12-03T00:18:24.951Z,11.40
2022-12-03T00:21:24.629Z,11.30
2022-12-03T00:24:22.358Z,12.10
2022-12-03T00:27:19.822Z,14.40
2022-12-03T00:30:17.281Z,14.40
2022-12-03T00:33:14.762Z,16.40
2022-12-03T00:36:12.225Z,13.60
2022-12-03T00:39:09.890Z,17.90
2022-12-03T00:42:07.401Z,15.00
2022-12-03T00:45:04.837Z,15.40
2022-12-03T00:48:02.284Z,10.90
2022-12-03T00:50:59.748Z,12.40
2022-12-03T00:53:57.218Z,13.80
2022-12-03T00:56:54.689Z,13.30
2022-12-03T00:59:52.146Z,14.00
2022-12-03T01:02:49.645Z,14.20
2022-12-03T01:05:47.120Z,14.80
2022-12-03T01:08:44.619Z,13.80
2022-12-03T01:11:42.094Z,11.40
2022-12-03T01:14:39.523Z,12.00
2022-12-03T01:17:36.981Z,12.20
2022-12-03T01:20:36.366Z,13.50
2022-12-03T01:23:33.879Z,16.20
2022-12-03T01:26:31.315Z,14.00
2022-12-03T01:29:28.788Z,12.30
2022-12-03T01:32:26.232Z,13.00
2022-12-03T01:35:23.689Z,14.60
2022-12-03T01:38:21.179Z,12.30
2022-12-03T01:41:18.617Z,11.90
2022-12-03T01:44:16.096Z,14.50
2022-12-03T01:47:13.545Z,11.70
2022-12-03T01:50:11.044Z,11.80
2022-12-03T01:53:08.508Z,10.60
2022-12-03T01:56:05.963Z,12.10
2022-12-03T01:59:03.434Z,14.00
2022-12-03T02:02:00.985Z,12.30
2022-12-03T02:04:58.516Z,11.10
2022-12-03T02:07:56.043Z,12.30
2022-12-03T02:10:53.527Z,9.40
2022-12-03T02:13:50.999Z,11.10
2022-12-03T02:16:48.453Z,11.60
2022-12-03T02:19:45.917Z,12.00
2022-12-03T02:22:43.372Z,12.70
2022-12-03T02:25:40.834Z,12.00
2022-12-03T02:28:38.715Z,11.30
2022-12-03T02:31:36.281Z,11.20
2022-12-03T02:34:33.890Z,12.80
2022-12-03T02:37:31.351Z,13.20
2022-12-03T02:40:28.857Z,11.60
2022-12-03T02:43:26.342Z,13.10
2022-12-03T02:46:24.126Z,10.90
2022-12-03T02:49:21.660Z,11.10
2022-12-03T02:52:19.106Z,11.70
2022-12-03T02:55:16.590Z,13.60
2022-12-03T02:58:14.031Z,14.50
2022-12-03T03:01:11.513Z,13.20
2022-12-03T03:04:09.035Z,11.30
2022-12-03T03:07:06.472Z,12.70
2022-12-03T03:10:03.932Z,9.70
2022-12-03T03:13:01.396Z,11.50
2022-12-03T03:15:58.915Z,14.80
2022-12-03T03:18:56.421Z,14.50
2022-12-03T03:21:53.882Z,10.30
2022-12-03T03:24:51.636Z,10.10
2022-12-03T03:27:49.318Z,11.50
2022-12-03T03:30:46.815Z,11.00
2022-12-03T03:33:44.301Z,10.60
2022-12-03T03:36:41.743Z,10.60
2022-12-03T03:39:39.215Z,10.10
2022-12-03T03:42:36.661Z,12.60
2022-12-03T03:45:34.199Z,9.80
2022-12-03T03:48:31.709Z,11.10
2022-12-03T03:51:29.181Z,17.20
2022-12-03T03:54:26.624Z,9.40
2022-12-03T03:57:24.088Z,10.30
2022-12-03T04:00:21.568Z,11.60
2022-12-03T04:03:19.010Z,10.60
2022-12-03T04:06:16.447Z,10.90
2022-12-03T04:09:13.894Z,12.20
2022-12-03T04:12:29.022Z,12.80
2022-12-03T04:15:26.457Z,11.80
2022-12-03T04:18:41.274Z,14.90
2022-12-03T04:21:56.383Z,11.50
2022-12-03T04:25:13.814Z,13.60
2022-12-03T04:28:28.930Z,11.60
2022-12-03T04:31:43.811Z,11.50
2022-12-03T04:34:59.117Z,11.80
2022-12-03T04:37:56.552Z,11.60
2022-12-03T04:41:10.697Z,11.70
2022-12-03T04:44:25.583Z,12.90
2022-12-03T04:47:23.039Z,12.00
2022-12-03T04:50:20.496Z,10.20
2022-12-03T04:53:17.948Z,14.70
2022-12-03T04:56:15.407Z,13.20
2022-12-03T04:59:16.283Z,14.10
2022-12-03T05:02:14.261Z,13.50
2022-12-03T05:05:11.969Z,12.70
2022-12-03T05:08:09.545Z,12.20
2022-12-03T05:11:07.071Z,12.30
2022-12-03T05:14:04.558Z,14.90
2022-12-03T05:17:02.124Z,16.40
2022-12-03T05:20:17.375Z,13.00
2022-12-03T05:23:14.866Z,12.80
2022-12-03T05:26:12.338Z,11.30
2022-12-03T05:29:09.801Z,12.70
2022-12-03T05:32:07.292Z,12.40
2022-12-03T05:35:04.804Z,15.80
2022-12-03T05:38:02.248Z,14.20
2022-12-03T05:40:59.700Z,16.60
2022-12-03T05:43:57.156Z,10.90
2022-12-03T05:46:54.650Z,12.00
2022-12-03T05:49:52.116Z,14.00
2022-12-03T05:52:49.636Z,15.30
2022-12-03T05:55:47.077Z,14.00
2022-12-03T05:58:44.544Z,13.20
2022-12-03T06:01:41.995Z,13.20
2022-12-03T06:04:39.447Z,12.40
2022-12-03T06:07:36.959Z,13.90
2022-12-03T06:10:34.546Z,14.80
2022-12-03T06:13:32.114Z,16.00
2022-12-03T06:16:29.744Z,15.70
2022-12-03T06:19:27.228Z,14.60
2022-12-03T06:22:24.696Z,13.60
2022-12-03T06:25:22.149Z,14.20
2022-12-03T06:28:19.607Z,14.70
2022-12-03T06:31:17.135Z,16.20
2022-12-03T06:34:14.655Z,15.40
2022-12-03T06:37:12.139Z,16.60
2022-12-03T06:40:09.574Z,15.40
2022-12-03T06:43:07.045Z,15.70
2022-12-03T06:46:04.656Z,18.20
2022-12-03T06:49:02.203Z,21.40
2022-12-03T06:51:59.679Z,17.30
2022-12-03T06:54:57.557Z,18.20
2022-12-03T06:57:55.043Z,17.90
2022-12-03T07:00:52.503Z,16.80
2022-12-03T07:03:49.951Z,15.20
2022-12-03T07:06:47.393Z,14.80
2022-12-03T07:09:44.857Z,14.70
2022-12-03T07:12:42.340Z,13.30
2022-12-03T07:15:39.803Z,18.10
2022-12-03T07:18:37.280Z,16.70
2022-12-03T07:21:34.718Z,16.90
2022-12-03T07:24:32.187Z,15.80
2022-12-03T07:27:29.660Z,15.40
2022-12-03T07:30:27.876Z,14.50
2022-12-03T07:33:25.378Z,17.40
2022-12-03T07:36:22.823Z,16.10
2022-12-03T07:39:20.261Z,16.80
2022-12-03T07:42:17.705Z,19.60
2022-12-03T07:45:15.178Z,19.70
2022-12-03T07:48:12.674Z,24.60
2022-12-03T07:51:14.193Z,25.00
2022-12-03T07:54:12.798Z,18.70
2022-12-03T07:57:10.259Z,21.60
2022-12-03T08:00:07.691Z,21.70
2022-12-03T08:03:05.169Z,24.30
2022-12-03T08:06:03.018Z,26.30
2022-12-03T08:09:00.471Z,20.30
2022-12-03T08:11:57.922Z,18.50
2022-12-03T08:14:55.521Z,22.90
2022-12-03T08:17:53.073Z,23.40
2022-12-03T08:20:50.551Z,21.80
2022-12-03T08:23:48.318Z,23.20
2022-12-03T08:26:45.740Z,21.90
2022-12-03T08:29:43.211Z,27.00
2022-12-03T08:32:40.689Z,22.20
2022-12-03T08:35:38.187Z,23.80
2022-12-03T08:38:35.647Z,25.50
2022-12-03T08:41:50.602Z,28.00
2022-12-03T08:44:48.054Z,26.60
2022-12-03T08:47:45.489Z,25.40
2022-12-03T08:50:42.957Z,24.90
2022-12-03T08:53:40.419Z,27.90
2022-12-03T08:56:37.882Z,27.70
2022-12-03T08:59:35.339Z,21.50
2022-12-03T09:02:33.473Z,25.80
2022-12-03T09:05:30.989Z,25.70
2022-12-03T09:08:28.451Z,25.10
2022-12-03T09:11:25.903Z,28.30
2022-12-03T09:14:23.806Z,29.20
2022-12-03T09:17:21.319Z,19.20
2022-12-03T09:20:18.796Z,27.80
2022-12-03T09:23:16.241Z,25.40
2022-12-03T09:26:13.829Z,25.70
2022-12-03T09:29:12.645Z,23.90
2022-12-03T09:32:13.772Z,28.10
2022-12-03T09:35:15.715Z,27.10
2022-12-03T09:38:13.181Z,25.80
2022-12-03T09:41:10.655Z,22.30
2022-12-03T09:44:15.844Z,25.10
2022-12-03T09:47:15.242Z,26.30
2022-12-03T09:50:13.042Z,23.50
2022-12-03T09:53:10.650Z,24.50
2022-12-03T09:56:08.190Z,25.60
2022-12-03T09:59:05.742Z,26.10
2022-12-03T10:02:03.767Z,24.60
2022-12-03T10:05:01.512Z,23.90
2022-12-03T10:07:59.704Z,27.30
2022-12-03T10:10:57.578Z,25.30
2022-12-03T10:13:55.170Z,29.20
2022-12-03T10:16:52.838Z,23.30
2022-12-03T10:19:50.465Z,25.10
2022-12-03T10:22:48.954Z,22.90
2022-12-03T10:25:46.574Z,24.20
2022-12-03T10:28:44.221Z,22.10
2022-12-03T10:31:41.715Z,22.30
2022-12-03T10:34:39.188Z,24.10
2022-12-03T10:37:36.644Z,23.60
2022-12-03T10:40:34.607Z,21.10
2022-12-03T10:43:32.074Z,22.90
2022-12-03T10:46:29.686Z,21.50
2022-12-03T10:49:27.249Z,21.00
2022-12-03T10:52:26.172Z,19.20
2022-12-03T10:55:23.839Z,21.20
2022-12-03T10:58:21.301Z,20.90
2022-12-03T11:01:19.193Z,23.20
2022-12-03T11:04:16.692Z,20.00
2022-12-03T11:07:14.144Z,22.10
2022-12-03T11:10:11.668Z,21.70
2022-12-03T11:13:09.128Z,19.70
2022-12-03T11:16:08.261Z,22.10
2022-12-03T11:19:05.779Z,25.90
2022-12-03T11:22:03.274Z,22.70
2022-12-03T11:25:00.685Z,20.30
2022-12-03T11:27:58.157Z,25.60
2022-12-03T11:30:56.701Z,21.70
2022-12-03T11:33:54.283Z,21.90
2022-12-03T11:37:01.489Z,24.10
2022-12-03T11:39:59.757Z,24.50
2022-12-03T11:42:57.253Z,24.20
2022-12-03T11:45:58.342Z,25.30
2022-12-03T11:48:58.491Z,20.20
2022-12-03T11:51:55.943Z,25.60
2022-12-03T11:54:53.411Z,22.40
2022-12-03T11:57:50.867Z,24.50
2022-12-03T12:00:48.312Z,24.30
2022-12-03T12:03:45.883Z,23.00
2022-12-03T12:06:43.397Z,23.20
2022-12-03T12:09:40.894Z,23.50
2022-12-03T12:12:38.357Z,19.40
2022-12-03T12:15:35.852Z,21.40
2022-12-03T12:18:33.320Z,25.00
2022-12-03T12:21:30.807Z,24.10
2022-12-03T12:24:28.266Z,24.40
2022-12-03T12:27:25.725Z,22.50
2022-12-03T12:30:23.384Z,21.70
2022-12-03T12:33:23.110Z,23.30
2022-12-03T12:36:20.684Z,27.40
2022-12-03T12:39:18.136Z,24.70
2022-12-03T12:42:15.747Z,27.80
2022-12-03T12:45:13.195Z,28.40
2022-12-03T12:48:10.668Z,24.40
2022-12-03T12:51:08.166Z,24.30
2022-12-03T12:54:05.620Z,23.20
2022-12-03T12:57:03.147Z,26.70
2022-12-03T13:00:00.585Z,29.00
2022-12-03T13:02:58.118Z,28.80
2022-12-03T13:05:55.638Z,30.00
2022-12-03T13:08:53.150Z,30.50
2022-12-03T13:11:50.603Z,27.40
2022-12-03T13:14:48.066Z,28.50
2022-12-03T13:17:45.505Z,30.70
2022-12-03T13:20:42.955Z,28.70
2022-12-03T13:23:40.428Z,27.20
2022-12-03T13:26:39.288Z,26.20
2022-12-03T13:29:37.015Z,33.10
2022-12-03T13:32:34.503Z,32.80
2022-12-03T13:35:35.361Z,32.20
2022-12-03T13:38:32.801Z,29.80
2022-12-03T13:41:47.259Z,31.80
2022-12-03T13:44:44.736Z,34.90
2022-12-03T13:47:42.260Z,34.80
2022-12-03T13:50:39.679Z,36.20
2022-12-03T13:53:37.098Z,35.50
2022-12-03T13:56:36.363Z,32.10
2022-12-03T13:59:33.836Z,34.40
2022-12-03T14:02:31.629Z,38.60
2022-12-03T14:05:29.125Z,34.90
2022-12-03T14:08:26.607Z,44.40
2022-12-03T14:11:41.735Z,35.00
2022-12-03T14:14:39.212Z,40.70
2022-12-03T14:17:36.700Z,43.10
2022-12-03T14:20:35.121Z,42.20
2022-12-03T14:23:32.635Z,40.30
2022-12-03T14:26:30.110Z,45.30
2022-12-03T14:29:27.565Z,47.50
2022-12-03T14:32:25.200Z,49.60
2022-12-03T14:35:22.724Z,47.40
2022-12-03T14:38:20.183Z,52.60
2022-12-03T14:41:35.392Z,51.80
2022-12-03T14:44:32.874Z,56.00
2022-12-03T14:47:30.338Z,54.20
2022-12-03T14:50:27.809Z,54.60
2022-12-03T14:53:27.410Z,54.30
2022-12-03T14:56:25.146Z,58.60
2022-12-03T14:59:27.471Z,52.20
2022-12-03T15:02:25.430Z,60.30
2022-12-03T15:05:28.627Z,57.00
2022-12-03T15:08:26.822Z,55.40
2022-12-03T15:11:24.338Z,58.50
2022-12-03T15:14:21.823Z,58.00
2022-12-03T15:17:27.803Z,56.60
2022-12-03T15:20:28.739Z,53.20
2022-12-03T15:23:26.181Z,51.10
2022-12-03T15:26:23.645Z,56.20
2022-12-03T15:29:21.164Z,52.60
2022-12-03T15:32:18.614Z,59.00
2022-12-03T15:35:18.641Z,59.60
2022-12-03T15:38:16.496Z,51.60
2022-12-03T15:41:24.671Z,57.60
2022-12-03T15:44:23.867Z,52.30
2022-12-03T15:47:22.149Z,52.80
2022-12-03T15:50:19.656Z,49.30
2022-12-03T15:53:17.600Z,51.00
2022-12-03T15:56:15.435Z,47.60
2022-12-03T15:59:16.317Z,55.10
2022-12-03T16:02:13.969Z,47.00
2022-12-03T16:05:11.511Z,42.10
2022-12-03T16:08:09.191Z,45.20
2022-12-03T16:11:07.123Z,44.50
2022-12-03T16:14:04.672Z,44.50
2022-12-03T16:17:02.325Z,50.40
2022-12-03T16:20:00.265Z,48.70
2022-12-03T16:22:58.291Z,51.10
2022-12-03T16:25:56.718Z,40.40
2022-12-03T16:28:54.787Z,44.90
2022-12-03T16:31:52.300Z,45.80
2022-12-03T16:34:50.316Z,38.90
2022-12-03T16:37:48.298Z,39.30
2022-12-03T16:40:45.846Z,49.10
2022-12-03T16:43:46.221Z,38.30
2022-12-03T16:46:46.138Z,38.20
2022-12-03T16:49:44.378Z,39.40
2022-12-03T16:52:41.895Z,36.00
2022-12-03T16:55:39.444Z,40.90
2022-12-03T16:58:37.655Z,38.00
2022-12-03T17:01:36.166Z,37.70
2022-12-03T17:04:37.160Z,40.80
2022-12-03T17:07:34.940Z,42.50
2022-12-03T17:10:33.651Z,34.80
2022-12-03T17:13:31.201Z,34.00
2022-12-03T17:16:29.641Z,29.70
2022-12-03T17:19:27.604Z,36.90
2022-12-03T17:22:25.957Z,34.00
2022-12-03T17:25:23.948Z,39.60
2022-12-03T17:28:22.281Z,32.20
2022-12-03T17:31:20.309Z,40.30
2022-12-03T17:34:18.267Z,43.40
2022-12-03T17:37:15.951Z,39.80
2022-12-03T17:40:13.475Z,30.30
2022-12-03T17:43:12.047Z,42.10
2022-12-03T17:46:10.420Z,43.40
2022-12-03T17:49:07.911Z,42.10
2022-12-03T17:52:05.370Z,42.50
2022-12-03T17:55:11.234Z,42.30
2022-12-03T17:58:10.600Z,29.90
2022-12-03T18:01:10.566Z,46.30
2022-12-03T18:04:09.783Z,38.70
2022-12-03T18:07:07.690Z,42.00
2022-12-03T18:10:05.222Z,47.40
2022-12-03T18:13:03.099Z,46.60
2022-12-03T18:16:00.745Z,42.90
2022-12-03T18:19:04.662Z,47.70
2022-12-03T18:22:05.426Z,39.20
2022-12-03T18:25:03.452Z,47.40
2022-12-03T18:28:00.937Z,41.00
2022-12-03T18:30:59.039Z,37.30
2022-12-03T18:33:57.273Z,43.90
2022-12-03T18:36:54.926Z,43.20
2022-12-03T18:39:54.478Z,47.00
2022-12-03T18:42:54.656Z,47.30
2022-12-03T18:45:53.142Z,49.20
2022-12-03T18:48:50.683Z,52.40
2022-12-03T18:51:48.636Z,46.20
2022-12-03T18:54:47.347Z,49.40
2022-12-03T18:57:45.090Z,45.70
2022-12-03T19:00:42.824Z,37.60
2022-12-03T19:03:40.856Z,38.80
2022-12-03T19:06:38.824Z,48.60
2022-12-03T19:09:38.435Z,34.20
2022-12-03T19:12:40.158Z,42.70
2022-12-03T19:15:38.597Z,44.00
2022-12-03T19:18:37.260Z,45.20
2022-12-03T19:21:36.606Z,41.70
2022-12-03T19:24:35.203Z,43.40
2022-12-03T19:27:33.215Z,43.20
2022-12-03T19:30:31.656Z,46.90
2022-12-03T19:33:30.166Z,40.50
2022-12-03T19:36:28.253Z,38.10
2022-12-03T19:39:28.002Z,39.20
2022-12-03T19:42:29.940Z,40.20
2022-12-03T19:48:27.313Z,34.10
2022-12-03T19:51:34.546Z,36.40
2022-12-03T19:54:34.787Z,33.40
2022-12-03T19:57:33.262Z,28.70
2022-12-03T20:00:31.979Z,35.50
2022-12-03T20:03:30.654Z,31.90
2022-12-03T20:06:29.257Z,38.50
2022-12-03T20:09:27.940Z,30.90
2022-12-03T20:12:26.436Z,32.70
2022-12-03T20:15:24.869Z,35.80
2022-12-03T20:18:23.068Z,34.20
2022-12-03T20:21:21.736Z,29.20
2022-12-03T20:24:20.464Z,31.10
2022-12-03T20:27:22.793Z,31.90
2022-12-03T20:30:21.727Z,30.40
2022-12-03T20:33:20.253Z,35.80
2022-12-03T20:36:18.323Z,38.80
2022-12-03T20:39:15.886Z,38.80
2022-12-03T20:42:17.003Z,42.30
2022-12-03T20:45:15.425Z,37.70
2022-12-03T20:48:14.002Z,44.50
2022-12-03T20:51:12.094Z,36.90
2022-12-03T20:54:10.584Z,42.50
2022-12-03T20:57:09.021Z,44.50
2022-12-03T21:00:07.348Z,40.60
2022-12-03T21:03:06.002Z,45.30
2022-12-03T21:06:03.791Z,46.10
2022-12-03T21:09:02.105Z,44.00
2022-12-03T21:12:00.968Z,41.00
2022-12-03T21:14:59.831Z,42.50
2022-12-03T21:17:57.603Z,49.00
2022-12-03T21:20:55.740Z,48.10
2022-12-03T21:23:53.661Z,42.50
2022-12-03T21:26:52.293Z,46.70
2022-12-03T21:29:50.212Z,41.20
2022-12-03T21:32:48.647Z,44.40
2022-12-03T21:35:47.228Z,41.20
2022-12-03T21:38:45.155Z,46.00
2022-12-03T21:42:18.863Z,52.00
2022-12-03T21:45:01.229Z,46.60
2022-12-03T21:47:58.767Z,49.00
2022-12-03T21:50:56.347Z,44.40
2022-12-03T21:53:53.880Z,47.50
2022-12-03T21:56:51.812Z,43.80
2022-12-03T21:59:49.939Z,48.50
2022-12-03T22:02:47.436Z,36.60
2022-12-03T22:05:45.708Z,45.70
2022-12-03T22:08:43.202Z,42.60
2022-12-03T22:11:40.900Z,53.10
2022-12-03T22:14:38.588Z,46.40
2022-12-03T22:17:36.041Z,47.30
2022-12-03T22:20:33.480Z,48.60
2022-12-03T22:23:30.933Z,43.00
2022-12-03T22:26:28.397Z,46.20
2022-12-03T22:29:25.833Z,44.60
2022-12-03T22:32:23.904Z,46.20
2022-12-03T22:35:21.370Z,44.20
2022-12-03T22:38:18.839Z,44.20
2022-12-03T22:41:16.333Z,44.60
2022-12-03T22:44:13.795Z,45.80
2022-12-03T22:47:11.248Z,47.40
2022-12-03T22:50:08.873Z,36.10
2022-12-03T22:53:06.336Z,46.90
2022-12-03T22:56:03.801Z,45.60
2022-12-03T22:59:01.258Z,42.90
2022-12-03T23:01:58.717Z,41.50
2022-12-03T23:04:56.180Z,36.10
2022-12-03T23:07:53.673Z,38.00
2022-12-03T23:10:51.177Z,44.80
2022-12-03T23:13:48.640Z,40.40
2022-12-03T23:16:46.094Z,39.90
2022-12-03T23:19:43.533Z,44.30
2022-12-03T23:22:41.005Z,45.80
2022-12-03T23:25:38.523Z,42.40
2022-12-03T23:28:35.958Z,39.50
2022-12-03T23:31:33.741Z,40.40
2022-12-03T23:34:31.407Z,42.30
2022-12-03T23:37:28.963Z,38.30
2022-12-03T23:40:26.438Z,49.20
2022-12-03T23:43:23.886Z,41.90
2022-12-03T23:46:21.424Z,41.40
2022-12-03T23:49:18.945Z,45.30
2022-12-03T23:52:16.432Z,43.90
2022-12-03T23:55:13.880Z,41.10
2022-12-03T23:58:11.354Z,42.90
